createdAt,value
2023-04-05T00:01:38.196Z,90.80
2023-04-05T00:04:38.280Z,91.20
2023-04-05T00:11:00.325Z,91.00
2023-04-05T00:14:06.168Z,91.60
2023-04-05T00:58:45.455Z,93.70
2023-04-05T01:55:37.741Z,98.30
2023-04-05T01:58:05.134Z,97.40
2023-04-05T02:00:32.754Z,97.80
2023-04-05T02:03:00.407Z,98.00
2023-04-05T02:05:27.607Z,98.30
2023-04-05T02:07:54.785Z,98.80
2023-04-05T02:10:23.616Z,99.30
2023-04-05T02:12:51.388Z,99.80
2023-04-05T02:15:18.783Z,99.80
2023-04-05T02:17:46.308Z,99.90
2023-04-05T02:20:14.857Z,99.90
2023-04-05T02:22:45.542Z,99.90
2023-04-05T02:25:13.682Z,99.90
2023-04-05T02:27:41.454Z,99.90
2023-04-05T02:30:09.876Z,99.90
2023-04-05T02:32:37.058Z,99.90
2023-04-05T02:35:04.522Z,99.90
2023-04-05T02:37:31.843Z,99.90
2023-04-05T02:39:59.009Z,99.90
2023-04-05T02:42:26.310Z,99.90
2023-04-05T02:44:54.099Z,99.90
2023-04-05T02:47:21.907Z,99.90
2023-04-05T02:49:49.686Z,99.90
2023-04-05T02:52:17.299Z,99.90
2023-04-05T02:54:44.960Z,99.90
2023-04-05T02:57:12.123Z,99.90
2023-04-05T02:59:42.838Z,99.90
2023-04-05T03:02:11.200Z,99.90
2023-04-05T03:04:38.910Z,99.90
2023-04-05T03:07:06.027Z,99.90
2023-04-05T03:09:33.814Z,99.90
2023-04-05T03:12:05.076Z,99.90
2023-04-05T03:14:33.476Z,99.90
2023-04-05T03:17:01.377Z,99.90
2023-04-05T03:19:28.520Z,99.90
2023-04-05T03:21:55.874Z,99.90
2023-04-05T03:24:22.939Z,99.90
2023-04-05T03:26:50.620Z,99.90
2023-04-05T03:29:18.164Z,99.90
2023-04-05T03:31:46.114Z,99.90
2023-04-05T03:34:13.260Z,99.90
2023-04-05T03:36:43.268Z,99.90
2023-04-05T03:39:12.176Z,99.90
2023-04-05T03:41:41.478Z,99.90
2023-04-05T03:44:09.417Z,99.90
2023-04-05T03:46:38.173Z,99.90
2023-04-05T03:49:06.459Z,99.90
2023-04-05T03:51:33.807Z,99.90
2023-04-05T03:54:00.939Z,99.90
2023-04-05T03:56:28.128Z,99.90
2023-04-05T03:58:55.385Z,99.90
2023-04-05T04:01:22.636Z,99.90
2023-04-05T04:03:49.890Z,99.90
2023-04-05T04:06:19.519Z,99.90
2023-04-05T04:08:47.169Z,99.90
2023-04-05T04:11:14.223Z,99.90
2023-04-05T04:13:41.281Z,99.90
2023-04-05T04:16:08.492Z,99.90
2023-04-05T04:18:35.912Z,99.90
2023-04-05T04:21:07.289Z,99.90
2023-04-05T04:23:34.961Z,99.90
2023-04-05T04:26:03.244Z,99.90
2023-04-05T04:28:34.919Z,99.90
2023-04-05T04:31:09.384Z,99.90
2023-04-05T04:33:36.510Z,99.90
2023-04-05T04:36:13.800Z,99.90
2023-04-05T04:38:44.797Z,99.90
2023-04-05T04:41:13.200Z,99.90
2023-04-05T04:43:44.088Z,99.90
2023-04-05T04:46:15.205Z,99.90
2023-04-05T04:48:42.786Z,99.90
2023-04-05T04:51:10.090Z,99.90
2023-04-05T04:53:37.229Z,99.90
2023-04-05T04:56:08.931Z,99.90
2023-04-05T04:58:36.256Z,99.90
2023-04-05T05:01:10.157Z,99.90
2023-04-05T05:03:39.135Z,99.90
2023-04-05T05:06:06.826Z,99.90
2023-04-05T05:08:34.218Z,99.90
2023-04-05T05:11:01.934Z,99.90
2023-04-05T05:13:29.173Z,99.90
2023-04-05T05:15:56.403Z,99.90
2023-04-05T05:18:23.615Z,99.90
2023-04-05T05:20:52.567Z,99.90
2023-04-05T05:23:21.395Z,99.90
2023-04-05T05:25:48.684Z,99.90
2023-04-05T05:28:16.765Z,99.90
2023-04-05T05:30:46.203Z,99.90
2023-04-05T05:33:13.512Z,99.90
2023-04-05T05:35:41.082Z,99.90
2023-04-05T05:38:10.777Z,99.90
2023-04-05T05:40:39.970Z,99.90
2023-04-05T05:43:07.484Z,99.90
2023-04-05T05:45:35.034Z,99.90
2023-04-05T05:48:02.422Z,99.90
2023-04-05T05:50:32.985Z,99.90
2023-04-05T05:53:01.812Z,99.90
2023-04-05T05:55:29.826Z,99.90
2023-04-05T05:57:57.079Z,99.90
2023-04-05T06:00:24.848Z,99.90
2023-04-05T06:02:52.986Z,99.90
2023-04-05T06:05:20.470Z,99.90
2023-04-05T06:07:47.655Z,99.90
2023-04-05T06:10:15.774Z,99.90
2023-04-05T06:12:42.930Z,99.90
2023-04-05T06:15:10.815Z,99.90
2023-04-05T06:17:42.491Z,99.90
2023-04-05T06:20:13.845Z,99.90
2023-04-05T06:22:41.643Z,99.90
2023-04-05T06:25:09.753Z,99.90
2023-04-05T06:27:37.039Z,99.90
2023-04-05T06:30:04.596Z,99.90
2023-04-05T06:32:31.882Z,99.90
2023-04-05T06:35:19.129Z,99.90
2023-04-05T06:37:46.380Z,99.90
2023-04-05T06:40:14.476Z,99.90
2023-04-05T06:42:41.728Z,99.90
2023-04-05T06:45:09.877Z,99.90
2023-04-05T06:47:41.338Z,99.90
2023-04-05T06:50:10.143Z,99.90
2023-04-05T06:52:37.991Z,99.90
2023-04-05T06:55:06.115Z,99.90
2023-04-05T06:57:33.411Z,99.90
2023-04-05T07:00:00.552Z,99.90
2023-04-05T07:02:27.843Z,99.90
2023-04-05T07:05:00.800Z,99.90
2023-04-05T07:07:28.116Z,99.90
2023-04-05T07:09:55.824Z,99.90
2023-04-05T07:12:23.044Z,99.90
2023-04-05T07:14:50.438Z,99.90
2023-04-05T07:18:16.663Z,99.90
2023-04-05T07:20:48.717Z,99.90
2023-04-05T07:23:16.713Z,99.90
2023-04-05T07:26:41.502Z,99.90
2023-04-05T07:29:10.091Z,99.90
2023-04-05T07:31:39.411Z,99.90
2023-04-05T07:34:07.305Z,99.90
2023-04-05T07:36:37.010Z,99.90
2023-04-05T07:43:14.442Z,99.90
2023-04-05T07:45:42.860Z,99.90
2023-04-05T07:48:10.337Z,99.90
2023-04-05T07:50:39.888Z,99.90
2023-04-05T07:53:08.399Z,99.90
2023-04-05T07:55:39.394Z,99.90
2023-04-05T07:58:06.653Z,99.70
2023-04-05T08:00:33.946Z,99.40
2023-04-05T08:03:02.425Z,99.00
2023-04-05T08:05:32.340Z,98.70
2023-04-05T08:07:59.709Z,98.40
2023-04-05T08:10:27.452Z,98.20
2023-04-05T08:12:55.230Z,97.90
2023-04-05T08:15:22.433Z,97.60
2023-04-05T08:17:49.896Z,97.20
2023-04-05T08:20:17.238Z,96.90
2023-04-05T08:22:46.530Z,96.50
2023-04-05T08:25:17.339Z,96.10
2023-04-05T08:27:47.975Z,95.90
2023-04-05T08:30:16.788Z,95.70
2023-04-05T08:32:43.984Z,95.30
2023-04-05T08:35:11.352Z,94.90
2023-04-05T08:37:38.633Z,94.20
2023-04-05T08:40:08.896Z,93.80
2023-04-05T08:43:32.409Z,93.60
2023-04-05T08:46:01.412Z,92.80
2023-04-05T08:48:32.530Z,92.90
2023-04-05T08:50:59.706Z,92.60
2023-04-05T08:53:27.410Z,92.20
2023-04-05T08:55:57.984Z,91.80
2023-04-05T08:58:28.676Z,91.20
2023-04-05T09:00:59.492Z,91.70
2023-04-05T09:03:37.400Z,91.80
2023-04-05T09:06:09.345Z,91.80
2023-04-05T09:08:36.541Z,91.60
2023-04-05T09:11:03.856Z,91.20
2023-04-05T09:13:32.155Z,90.90
2023-04-05T09:16:02.858Z,90.50
2023-04-05T09:18:30.258Z,90.10
2023-04-05T09:21:06.966Z,89.50
2023-04-05T09:23:38.215Z,87.70
2023-04-05T09:26:23.593Z,88.10
2023-04-05T09:28:51.775Z,88.30
2023-04-05T09:31:36.209Z,89.80
2023-04-05T09:34:05.808Z,87.30
2023-04-05T09:36:36.559Z,87.80
2023-04-05T09:39:09.239Z,83.50
2023-04-05T09:41:37.559Z,81.50
2023-04-05T09:44:05.065Z,80.70
2023-04-05T09:46:34.382Z,77.60
2023-04-05T09:49:34.217Z,76.70
2023-04-05T09:52:01.654Z,74.30
2023-04-05T09:54:28.982Z,77.30
2023-04-05T09:56:57.814Z,72.70
2023-04-05T09:59:25.311Z,71.40
2023-04-05T10:01:53.086Z,68.60
2023-04-05T10:04:21.570Z,66.50
2023-04-05T10:06:49.210Z,65.90
2023-04-05T10:09:18.196Z,66.00
2023-04-05T10:11:46.410Z,65.50
2023-04-05T10:14:13.591Z,63.70
2023-04-05T10:17:28.181Z,62.30
2023-04-05T10:20:14.939Z,59.50
2023-04-05T10:22:52.399Z,58.80
2023-04-05T10:25:53.269Z,59.40
2023-04-05T10:28:35.401Z,59.30
2023-04-05T10:31:45.605Z,59.10
2023-04-05T10:34:47.821Z,58.50
2023-04-05T10:37:41.403Z,57.40
2023-04-05T10:40:11.891Z,56.90
2023-04-05T10:42:47.921Z,57.90
2023-04-05T10:45:23.363Z,56.20
2023-04-05T10:48:19.285Z,56.70
2023-04-05T10:50:49.084Z,55.40
2023-04-05T10:53:17.643Z,56.00
2023-04-05T10:55:46.267Z,55.90
2023-04-05T10:58:16.729Z,55.50
2023-04-05T11:00:46.606Z,55.10
2023-04-05T11:03:46.945Z,54.50
2023-04-05T11:06:33.814Z,53.10
2023-04-05T11:09:10.600Z,53.80
2023-04-05T11:11:43.765Z,53.40
2023-04-05T11:14:25.675Z,53.70
2023-04-05T11:17:00.187Z,54.70
2023-04-05T11:19:48.323Z,54.30
2023-04-05T11:22:27.778Z,53.90
2023-04-05T11:24:58.412Z,54.00
2023-04-05T11:27:31.570Z,53.60
2023-04-05T11:30:06.593Z,52.90
2023-04-05T11:32:45.681Z,53.20
2023-04-05T11:35:23.150Z,52.50
2023-04-05T11:37:55.477Z,52.70
2023-04-05T11:40:29.269Z,53.50
2023-04-05T11:43:08.041Z,53.70
2023-04-05T11:45:41.513Z,53.20
2023-04-05T11:48:14.326Z,53.40
2023-04-05T11:50:42.821Z,52.90
2023-04-05T11:53:15.024Z,52.90
2023-04-05T11:55:48.850Z,52.00
2023-04-05T11:58:25.456Z,51.50
2023-04-05T12:01:01.987Z,51.00
2023-04-05T12:03:30.478Z,51.20
2023-04-05T12:06:00.629Z,51.20
2023-04-05T12:08:42.545Z,50.90
2023-04-05T12:11:13.520Z,49.80
2023-04-05T12:13:41.499Z,50.30
2023-04-05T12:16:09.805Z,50.80
2023-04-05T12:18:39.009Z,50.00
2023-04-05T12:21:10.006Z,49.70
2023-04-05T12:23:38.999Z,49.60
2023-04-05T12:26:08.732Z,50.00
2023-04-05T12:28:56.041Z,50.00
2023-04-05T12:31:45.038Z,49.40
2023-04-05T12:34:15.202Z,49.20
2023-04-05T12:36:46.796Z,49.10
2023-04-05T12:39:19.964Z,47.80
2023-04-05T12:42:01.425Z,47.70
2023-04-05T12:44:30.756Z,47.70
2023-04-05T12:47:05.457Z,48.10
2023-04-05T12:49:38.815Z,47.50
2023-04-05T12:52:06.166Z,47.30
2023-04-05T12:54:34.691Z,47.50
2023-04-05T12:57:10.292Z,46.80
2023-04-05T12:59:37.684Z,46.30
2023-04-05T13:02:04.976Z,45.70
2023-04-05T13:04:32.208Z,45.90
2023-04-05T13:06:59.788Z,46.40
2023-04-05T13:09:26.994Z,46.30
2023-04-05T13:11:54.171Z,46.30
2023-04-05T13:14:23.473Z,46.40
2023-04-05T13:16:50.843Z,46.50
2023-04-05T13:19:18.083Z,46.60
2023-04-05T13:21:45.383Z,46.20
2023-04-05T13:24:13.095Z,45.90
2023-04-05T13:26:40.876Z,45.80
2023-04-05T13:29:08.532Z,46.10
2023-04-05T13:31:36.041Z,46.10
2023-04-05T13:34:03.801Z,46.30
2023-04-05T13:36:31.577Z,46.20
2023-04-05T13:38:58.831Z,46.30
2023-04-05T13:41:26.345Z,46.60
2023-04-05T13:43:53.578Z,46.50
2023-04-05T13:46:21.013Z,46.60
2023-04-05T13:48:48.298Z,46.50
2023-04-05T13:51:15.801Z,45.50
2023-04-05T13:53:43.079Z,45.20
2023-04-05T13:56:10.508Z,45.00
2023-04-05T13:58:37.602Z,44.80
2023-04-05T14:01:04.853Z,44.60
2023-04-05T14:03:32.251Z,44.50
2023-04-05T14:05:59.647Z,44.60
2023-04-05T14:08:26.775Z,44.60
2023-04-05T14:10:54.201Z,44.80
2023-04-05T14:13:21.628Z,44.70
2023-04-05T14:15:49.667Z,44.50
2023-04-05T14:18:19.014Z,44.30
2023-04-05T14:20:46.412Z,43.70
2023-04-05T14:23:14.053Z,44.00
2023-04-05T14:25:41.578Z,44.50
2023-04-05T14:28:09.055Z,44.50
2023-04-05T14:30:36.912Z,44.00
2023-04-05T14:33:04.382Z,44.20
2023-04-05T14:35:31.904Z,44.50
2023-04-05T14:37:59.180Z,44.70
2023-04-05T14:40:26.607Z,44.80
2023-04-05T14:42:54.393Z,44.90
2023-04-05T14:45:23.422Z,45.00
2023-04-05T14:47:50.862Z,45.20
2023-04-05T14:50:18.208Z,45.40
2023-04-05T14:52:46.030Z,45.60
2023-04-05T14:55:14.049Z,46.40
2023-04-05T14:57:41.912Z,45.70
2023-04-05T15:00:11.583Z,45.50
2023-04-05T15:02:39.330Z,45.60
2023-04-05T15:05:07.449Z,45.50
2023-04-05T15:07:34.748Z,45.40
2023-04-05T15:10:02.133Z,45.30
2023-04-05T15:13:26.921Z,45.20
2023-04-05T15:15:54.273Z,45.00
2023-04-05T15:18:21.801Z,45.60
2023-04-05T15:20:54.100Z,45.60
2023-04-05T15:23:26.843Z,45.50
2023-04-05T15:25:54.107Z,45.20
2023-04-05T15:28:21.400Z,45.30
2023-04-05T15:30:48.740Z,45.20
2023-04-05T15:33:17.796Z,45.20
2023-04-05T15:35:45.094Z,45.10
2023-04-05T15:38:12.479Z,45.00
2023-04-05T15:40:40.379Z,45.00
2023-04-05T15:43:07.595Z,45.00
2023-04-05T15:45:34.871Z,44.70
2023-04-05T15:48:02.397Z,45.00
2023-04-05T15:50:29.698Z,45.10
2023-04-05T15:52:56.924Z,45.40
2023-04-05T15:55:24.114Z,45.60
2023-04-05T15:57:54.776Z,45.60
2023-04-05T16:00:23.029Z,45.50
2023-04-05T16:02:52.935Z,45.20
2023-04-05T16:05:22.089Z,45.10
2023-04-05T16:07:49.356Z,44.90
2023-04-05T16:10:16.760Z,45.00
2023-04-05T16:13:03.431Z,44.90
2023-04-05T16:15:30.708Z,45.00
2023-04-05T16:17:58.603Z,45.50
2023-04-05T16:20:26.098Z,45.70
2023-04-05T16:22:53.927Z,45.50
2023-04-05T16:25:21.264Z,45.40
2023-04-05T16:27:48.825Z,45.40
2023-04-05T16:30:16.307Z,45.50
2023-04-05T16:32:43.914Z,45.60
2023-04-05T16:35:21.767Z,45.70
2023-04-05T16:37:48.978Z,45.70
2023-04-05T16:40:16.906Z,46.00
2023-04-05T16:42:46.693Z,46.10
2023-04-05T16:45:14.038Z,46.20
2023-04-05T16:48:18.842Z,46.30
2023-04-05T16:52:01.561Z,46.70
2023-04-05T16:54:28.987Z,46.20
2023-04-05T16:56:56.600Z,46.40
2023-04-05T16:59:24.180Z,46.50
2023-04-05T17:01:51.784Z,46.70
2023-04-05T17:04:19.133Z,46.90
2023-04-05T17:06:46.491Z,47.00
2023-04-05T17:09:13.840Z,47.30
2023-04-05T17:11:41.241Z,47.60
2023-04-05T17:14:09.568Z,47.90
2023-04-05T17:16:37.142Z,48.10
2023-04-05T17:19:05.826Z,48.20
2023-04-05T17:21:35.583Z,48.50
2023-04-05T17:24:02.938Z,48.60
2023-04-05T17:27:26.808Z,48.70
2023-04-05T17:29:54.003Z,48.90
2023-04-05T17:32:21.318Z,48.90
2023-04-05T17:34:48.736Z,49.00
2023-04-05T17:37:17.118Z,49.10
2023-04-05T17:39:44.494Z,49.30
2023-04-05T17:42:12.484Z,49.50
2023-04-05T17:44:39.756Z,49.70
2023-04-05T17:47:09.650Z,50.00
2023-04-05T17:49:37.837Z,50.20
2023-04-05T17:52:10.005Z,50.30
2023-04-05T17:54:38.719Z,50.60
2023-04-05T17:57:06.888Z,50.80
2023-04-05T17:59:35.602Z,51.00
2023-04-05T18:02:02.986Z,51.30
2023-04-05T18:04:30.596Z,51.50
2023-04-05T18:06:58.054Z,51.60
2023-04-05T18:09:26.028Z,51.90
2023-04-05T18:12:31.139Z,52.00
2023-04-05T18:14:58.456Z,52.40
2023-04-05T18:17:25.882Z,52.40
2023-04-05T18:24:03.659Z,53.10
2023-04-05T18:26:31.332Z,53.20
2023-04-05T18:29:18.710Z,53.40
2023-04-05T18:32:06.721Z,54.00
2023-04-05T18:34:35.080Z,54.20
2023-04-05T18:37:03.098Z,54.30
2023-04-05T18:39:30.475Z,54.50
2023-04-05T18:41:57.874Z,54.70
2023-04-05T18:44:25.155Z,54.90
2023-04-05T18:46:52.850Z,55.00
2023-04-05T18:49:21.553Z,55.20
2023-04-05T18:51:49.062Z,55.40
2023-04-05T18:54:18.628Z,55.60
2023-04-05T18:56:46.295Z,55.70
2023-04-05T18:59:32.550Z,55.90
2023-04-05T19:01:59.770Z,56.20
2023-04-05T19:05:25.453Z,56.10
2023-04-05T19:07:52.646Z,56.50
2023-04-05T19:10:22.593Z,56.30
2023-04-05T19:12:50.239Z,56.50
2023-04-05T19:15:18.148Z,56.60
2023-04-05T19:17:45.558Z,56.80
2023-04-05T19:21:27.880Z,56.90
2023-04-05T19:23:56.179Z,57.20
2023-04-05T19:31:53.646Z,57.40
2023-04-05T19:38:22.584Z,57.40
2023-04-05T19:40:50.093Z,57.20
2023-04-05T19:43:18.474Z,57.40
2023-04-05T19:45:46.070Z,57.60
2023-04-05T19:48:35.204Z,57.80
2023-04-05T19:51:11.469Z,58.30
2023-04-05T19:54:35.102Z,58.10
2023-04-05T19:57:03.003Z,58.50
2023-04-05T19:59:33.017Z,58.40
2023-04-05T20:02:02.361Z,58.70
2023-04-05T20:04:34.615Z,58.90
2023-04-05T20:07:03.280Z,58.90
2023-04-05T20:13:30.724Z,59.30
2023-04-05T20:15:58.167Z,58.90
2023-04-05T20:18:27.257Z,59.10
2023-04-05T20:20:55.111Z,59.50
2023-04-05T20:28:30.665Z,59.70
2023-04-05T20:30:58.152Z,59.70
2023-04-05T20:33:58.419Z,59.60
2023-04-05T20:36:36.116Z,60.10
2023-04-05T20:39:06.757Z,60.40
2023-04-05T20:41:34.319Z,60.60
2023-04-05T20:48:11.836Z,61.40
2023-04-05T20:50:39.369Z,60.90
2023-04-05T20:53:06.750Z,61.10
2023-04-05T20:55:33.965Z,61.40
2023-04-05T20:58:01.622Z,61.70
2023-04-05T21:00:29.780Z,62.00
2023-04-05T21:19:36.970Z,62.80
2023-04-05T21:22:04.280Z,62.50
2023-04-05T21:24:31.588Z,62.90
2023-04-05T21:26:58.760Z,63.40
2023-04-05T21:29:26.252Z,63.80
2023-04-05T21:31:55.825Z,64.30
2023-04-05T21:34:23.104Z,65.00
2023-04-05T21:36:50.970Z,65.40
2023-04-05T21:39:18.191Z,65.80
2023-04-05T21:41:45.793Z,66.10
2023-04-05T21:44:13.108Z,66.50
2023-04-05T21:46:40.315Z,66.90
2023-04-05T21:49:07.992Z,67.30
2023-04-05T21:51:35.609Z,67.50
2023-04-05T21:54:02.946Z,67.70
2023-04-05T21:56:30.386Z,67.60
2023-04-05T21:58:57.751Z,67.80
2023-04-05T22:01:25.682Z,68.20
2023-04-05T22:03:53.216Z,68.50
2023-04-05T22:06:20.592Z,68.50
2023-04-05T22:08:47.833Z,68.50
2023-04-05T22:11:15.154Z,68.80
2023-04-05T22:13:42.492Z,69.30
2023-04-05T22:16:09.755Z,69.30
2023-04-05T22:18:37.464Z,69.70
2023-04-05T22:21:23.583Z,69.90
2023-04-05T22:23:51.041Z,70.50
2023-04-05T22:26:19.303Z,70.20
2023-04-05T22:28:46.641Z,70.70
2023-04-05T22:31:15.035Z,71.20
2023-04-05T22:33:42.283Z,71.90
2023-04-05T22:36:10.168Z,72.60
2023-04-05T22:38:37.405Z,73.00
2023-04-05T22:41:04.863Z,73.00
2023-04-05T22:43:32.074Z,73.30
2023-04-05T22:45:59.280Z,73.80
2023-04-05T22:48:26.647Z,74.10
2023-04-05T22:50:53.902Z,74.30
2023-04-05T22:53:21.484Z,74.80
2023-04-05T22:55:48.779Z,75.00
2023-04-05T22:58:17.532Z,75.40
2023-04-05T23:00:45.059Z,75.90
2023-04-05T23:03:12.457Z,76.10
2023-04-05T23:05:39.790Z,76.40
2023-04-05T23:08:07.081Z,76.90
2023-04-05T23:10:34.416Z,77.30
2023-04-05T23:13:02.656Z,78.00
2023-04-05T23:15:29.830Z,78.60
2023-04-05T23:17:57.157Z,78.90
2023-04-05T23:20:24.342Z,79.30
2023-04-05T23:22:51.509Z,79.60
2023-04-05T23:25:18.726Z,79.90
2023-04-05T23:27:45.947Z,80.10
2023-04-05T23:30:13.617Z,80.30
2023-04-05T23:32:40.946Z,80.50
2023-04-05T23:35:08.646Z,80.90
2023-04-05T23:37:36.144Z,81.50
2023-04-05T23:40:04.611Z,82.10
2023-04-05T23:42:31.858Z,82.80
2023-04-05T23:45:00.404Z,83.20
2023-04-05T23:47:27.951Z,83.90
2023-04-05T23:49:55.308Z,84.50
2023-04-05T23:52:22.464Z,85.00
2023-04-05T23:54:49.825Z,85.40
2023-04-05T23:57:17.005Z,85.60
2023-04-05T23:59:44.256Z,85.50
